Strona główna
METAR-TAF:

METAR-TAF

Lotnisko :

Port lotniczy Krsko-Cerklje

Cerklje ob Krki, Słowenia

Szerokość geograficzna: 45-53-59N, Długość geograficzna: 15-30-55E, wysokość: 157 m

Aktualna obserwacja pogody

Raport powstał 35 minut temu, godzina 09:30 UTC
Wiatr 1 kt od południowo-południowy zachód
Temperatura 13°C
Wilgotność 35%
Ciśnienie 1014 hPa
Widzialność 10 km lub więcej
Brak chmur poniżej 1500 m i brak chmur cumulonimbus

METAR: LJCE 030930Z 20001KT CAVOK 13/M02 Q1014 RMK BLU

czas: 12:05 (10:05 UTC)

Prognoza

Raport powstał 2 godziny i 5 minut temu, godzina 08:00 UTC
Prognoza ważna od 03 godzina 09 UTC do 03 godzina 18 UTC
Wiatr 5 kt od wschodnio-północny wschód
Widzialność 10 km lub więcej
Brak chmur poniżej 1500 m i brak chmur cumulonimbus

TAF: LJCE 030800Z 0309/0318 07005KT CAVOK

Obserwacja i prognoza pogody dla ponad 4000 lotnisk (raport METAR i TAF).

Dostępne stacje oznaczono żółtymi i czerwonymi punktami na mapie.

Najedź kursorem aby zobaczyć nazwę stacji.

Kliknij aby zobaczyć obserwacje i prognozy pogody.

Aby zmienić mapę: kliknij na zielony przycisk z czarnym krzyżykiem, aby powiększyć; na zielony przycisk z myślnikiem, aby pomniejszyć; na zielone strzałki, aby przejść do map sąsiednich.


METAR-TAF: